Time;durP1;ratioP1;P1;durP2;ratioP2;P2;SDS_P1;SDS_P2;PMS_P1;PMS_P2;Temp;Humidity;BMP_temperature;BMP_pressure;BME280_temperature;BME280_humidity;BME280_pressure;Samples;Min_cycle;Max_cycle;Signal;HPM_P1;HPM_P2
2023/02/22 00:00:39;;;;;;;89.07;32.78;;;;;;;7.72;84.41;100482.75;10194903;29;20040;-81
2023/02/22 00:05:45;;;;;;;82.47;31.35;;;;;;;7.69;84.69;100480.28;10178793;29;20041;-81
2023/02/22 00:10:50;;;;;;;81.18;31.85;;;;;;;7.77;84.31;100482.44;10174712;29;20470;-79
2023/02/22 00:15:53;;;;;;;77.60;28.48;;;;;;;7.75;84.33;100472.81;10178704;29;20044;-81
2023/02/22 00:20:58;;;;;;;82.20;29.30;;;;;;;7.80;84.28;100463.50;10179025;29;20048;-81
2023/02/22 00:26:02;;;;;;;79.43;28.58;;;;;;;7.82;84.19;100466.94;10181494;29;20096;-81
2023/02/22 00:31:08;;;;;;;77.40;28.35;;;;;;;7.81;83.84;100459.00;10186926;29;20043;-81
2023/02/22 00:36:12;;;;;;;73.95;26.58;;;;;;;7.84;83.97;100456.13;10185802;29;20044;-81
2023/02/22 00:41:16;;;;;;;76.10;28.00;;;;;;;7.78;84.01;100454.72;10185415;29;20577;-79
2023/02/22 00:46:20;;;;;;;68.88;26.17;;;;;;;7.85;83.78;100455.19;10184733;29;20040;-81
2023/02/22 00:51:25;;;;;;;67.63;27.67;;;;;;;7.87;83.75;100454.13;10182705;29;20036;-80
2023/02/22 00:56:29;;;;;;;73.68;26.27;;;;;;;7.83;83.61;100446.41;10180669;29;20040;-81
2023/02/22 01:01:33;;;;;;;70.47;27.30;;;;;;;7.80;83.35;100438.59;10180547;29;20068;-80
2023/02/22 01:06:36;;;;;;;73.57;28.83;;;;;;;7.75;83.46;100444.25;10180473;29;20051;-80
2023/02/22 01:11:41;;;;;;;65.80;26.38;;;;;;;7.68;83.66;100440.28;10183150;29;20535;-81
2023/02/22 01:16:44;;;;;;;64.57;25.75;;;;;;;7.63;83.65;100442.41;10182599;29;20423;-81
2023/02/22 01:21:47;;;;;;;64.53;24.88;;;;;;;7.50;84.08;100434.38;10191803;29;20054;-81
2023/02/22 01:26:52;;;;;;;60.92;22.05;;;;;;;7.40;84.01;100442.13;10198875;29;20052;-81
2023/02/22 01:31:56;;;;;;;62.92;22.65;;;;;;;7.30;83.96;100434.84;10182147;29;20052;-81
2023/02/22 01:37:00;;;;;;;60.67;20.92;;;;;;;7.24;84.52;100426.28;10181504;29;20040;-81
2023/02/22 01:42:04;;;;;;;55.15;20.58;;;;;;;7.16;84.52;100415.25;10181610;29;20044;-80
2023/02/22 01:47:08;;;;;;;53.45;19.83;;;;;;;7.15;84.67;100408.16;10181669;29;20480;-81
2023/02/22 01:52:17;;;;;;;58.30;21.33;;;;;;;7.17;84.08;100392.91;10183707;29;20064;-81
2023/02/22 01:57:28;;;;;;;60.72;21.13;;;;;;;7.04;83.97;100387.50;10181343;29;20040;-81
2023/02/22 02:02:31;;;;;;;57.97;21.02;;;;;;;6.91;83.82;100391.97;10182582;29;20044;-81
2023/02/22 02:07:37;;;;;;;71.13;22.55;;;;;;;6.78;84.16;100386.53;10180669;29;20044;-80
2023/02/22 02:12:43;;;;;;;67.25;22.23;;;;;;;6.70;84.11;100380.84;10175534;29;20040;-80
2023/02/22 02:17:48;;;;;;;66.00;22.02;;;;;;;6.61;84.12;100374.28;10172308;29;20051;-80
2023/02/22 02:23:00;;;;;;;74.10;24.20;;;;;;;6.52;84.18;100374.00;10195660;29;20507;-81
2023/02/22 02:28:39;;;;;;;65.22;22.00;;;;;;;6.47;84.31;100376.13;10178669;29;20048;-79
2023/02/22 02:33:49;;;;;;;60.15;22.45;;;;;;;6.42;84.23;100364.88;10176758;29;20131;-81
2023/02/22 02:38:57;;;;;;;61.75;21.73;;;;;;;6.34;84.31;100355.56;10176894;29;20653;-80
2023/02/22 02:44:04;;;;;;;59.50;20.58;;;;;;;6.26;84.26;100346.34;10176677;29;20052;-81
2023/02/22 02:49:17;;;;;;;64.40;21.63;;;;;;;6.10;84.36;100344.63;10175540;29;20040;-80
2023/02/22 02:54:21;;;;;;;72.88;24.75;;;;;;;6.09;84.40;100336.75;10189819;29;20054;-80
2023/02/22 02:59:29;;;;;;;75.03;23.98;;;;;;;6.04;84.80;100323.69;10179713;29;20076;-80
2023/02/22 03:04:53;;;;;;;67.45;22.63;;;;;;;6.00;84.75;100322.16;10174687;29;20048;-80
2023/02/22 03:10:12;;;;;;;72.95;24.77;;;;;;;5.94;84.98;100314.56;10169853;29;20251;-81
2023/02/22 03:15:28;;;;;;;85.70;24.77;;;;;;;5.95;85.18;100313.59;10156298;29;20079;-81
2023/02/22 03:20:42;;;;;;;84.35;24.85;;;;;;;6.01;85.27;100323.03;10140635;29;20044;-81
2023/02/22 03:25:51;;;;;;;85.88;24.63;;;;;;;6.03;85.28;100305.09;10138677;29;20520;-80
2023/02/22 03:30:59;;;;;;;68.85;22.48;;;;;;;5.92;85.09;100304.00;10137399;29;20044;-80
2023/02/22 03:36:11;;;;;;;76.70;23.70;;;;;;;5.91;85.34;100307.59;10139089;29;20040;-81
2023/02/22 03:41:18;;;;;;;79.27;24.93;;;;;;;5.91;85.46;100304.94;10137201;29;20420;-80
2023/02/22 03:46:23;;;;;;;75.68;22.52;;;;;;;5.89;85.58;100306.84;10137264;29;20390;-81
2023/02/22 03:51:28;;;;;;;81.32;24.90;;;;;;;5.86;85.61;100298.19;10137632;29;20049;-80
2023/02/22 03:56:45;;;;;;;69.28;21.15;;;;;;;5.82;85.57;100292.19;10137106;29;20436;-79
2023/02/22 04:01:49;;;;;;;78.03;24.27;;;;;;;5.79;85.82;100295.06;10143066;29;20053;-80
2023/02/22 04:06:54;;;;;;;73.53;21.50;;;;;;;5.76;85.68;100297.91;10145477;29;20041;-81
2023/02/22 04:11:58;;;;;;;77.93;23.80;;;;;;;5.81;85.84;100298.47;10144983;29;20448;-81
2023/02/22 04:17:02;;;;;;;77.53;22.75;;;;;;;5.83;86.10;100295.72;10143695;29;20063;-80
2023/02/22 04:22:07;;;;;;;81.22;23.10;;;;;;;5.80;86.16;100296.75;10143986;29;20083;-80
2023/02/22 04:27:10;;;;;;;76.82;24.67;;;;;;;5.76;86.32;100294.38;10163516;29;20048;-80
2023/02/22 04:32:15;;;;;;;79.25;23.52;;;;;;;5.78;86.24;100287.13;10156841;29;20048;-80
2023/02/22 04:37:20;;;;;;;77.75;25.15;;;;;;;5.77;85.93;100293.44;10141394;29;20083;-80
2023/02/22 04:42:23;;;;;;;88.18;25.05;;;;;;;5.75;85.95;100292.66;10218709;23;20079;-79
2023/02/22 04:47:27;;;;;;;84.22;24.35;;;;;;;5.70;85.92;100298.28;10182675;29;20497;-78
2023/02/22 04:52:31;;;;;;;78.20;23.75;;;;;;;5.67;85.96;100290.47;10180103;29;20067;-78
2023/02/22 04:57:35;;;;;;;79.50;24.55;;;;;;;5.65;86.17;100287.03;10197759;29;20040;-79
2023/02/22 05:02:38;;;;;;;91.30;24.58;;;;;;;5.62;85.99;100280.13;10195883;29;20051;-79
2023/02/22 05:07:43;;;;;;;86.75;25.45;;;;;;;5.60;86.00;100278.50;10183881;29;20072;-78
2023/02/22 05:12:46;;;;;;;91.82;26.23;;;;;;;5.60;86.08;100265.19;10195490;29;20131;-79
2023/02/22 05:17:49;;;;;;;95.32;29.00;;;;;;;5.61;86.28;100267.72;10180698;29;20059;-79
2023/02/22 05:22:53;;;;;;;88.10;26.33;;;;;;;5.60;86.32;100257.19;10178491;29;20071;-79
2023/02/22 05:27:57;;;;;;;96.43;29.50;;;;;;;5.66;86.72;100262.13;10183458;29;20039;-79
2023/02/22 05:33:01;;;;;;;96.80;28.30;;;;;;;5.69;86.49;100256.59;10196143;28;20028;-78
2023/02/22 05:38:06;;;;;;;97.93;28.83;;;;;;;5.71;86.45;100247.56;10207733;29;20052;-78
2023/02/22 05:43:09;;;;;;;102.20;30.63;;;;;;;5.68;86.51;100244.22;10198354;29;20051;-77
2023/02/22 05:48:12;;;;;;;98.20;28.63;;;;;;;5.65;86.68;100239.94;10167309;29;20057;-78
2023/02/22 05:53:16;;;;;;;101.18;27.75;;;;;;;5.65;87.03;100239.06;10143969;29;20071;-79
2023/02/22 05:58:19;;;;;;;103.38;30.90;;;;;;;5.79;86.87;100243.53;10177000;29;20055;-79
2023/02/22 06:03:22;;;;;;;101.95;29.63;;;;;;;5.72;87.12;100237.75;10162128;29;20033;-79
2023/02/22 06:08:26;;;;;;;115.32;31.85;;;;;;;5.77;87.53;100238.31;10154235;29;20072;-79
2023/02/22 06:13:29;;;;;;;117.82;31.52;;;;;;;5.81;87.63;100231.81;10171143;29;20049;-78
2023/02/22 06:18:32;;;;;;;107.72;31.63;;;;;;;5.78;87.55;100236.50;10171238;29;20036;-79
2023/02/22 06:23:36;;;;;;;114.53;30.83;;;;;;;5.84;87.41;100228.09;10165358;29;20037;-78
2023/02/22 06:28:39;;;;;;;120.13;33.60;;;;;;;5.80;87.18;100227.44;10154298;29;20079;-78
2023/02/22 06:33:42;;;;;;;107.20;32.42;;;;;;;5.76;87.24;100225.06;10159730;29;20514;-79
2023/02/22 06:38:46;;;;;;;119.95;31.63;;;;;;;5.78;87.40;100236.50;10169380;29;20079;-78
2023/02/22 06:43:49;;;;;;;117.68;31.50;;;;;;;5.88;87.50;100229.63;10171110;29;20037;-78
2023/02/22 06:48:51;;;;;;;112.38;31.63;;;;;;;5.94;87.58;100237.22;10189805;29;20044;-77
2023/02/22 06:53:56;;;;;;;101.07;32.70;;;;;;;6.02;87.82;100229.59;10171159;29;20062;-79
2023/02/22 06:59:00;;;;;;;140.65;34.30;;;;;;;6.24;87.86;100237.06;10164623;29;20116;-79
2023/02/22 07:04:04;;;;;;;112.13;31.30;;;;;;;6.49;87.54;100238.97;10156309;29;20059;-79
2023/02/22 07:09:09;;;;;;;96.70;30.60;;;;;;;6.61;87.19;100231.97;10153566;29;20508;-79
2023/02/22 07:14:11;;;;;;;54.25;21.27;;;;;;;6.82;86.61;100238.50;10221939;28;20055;-77
2023/02/22 07:19:14;;;;;;;56.40;22.27;;;;;;;6.91;86.74;100236.22;10179090;28;20100;-79
2023/02/22 07:24:18;;;;;;;60.72;23.25;;;;;;;7.17;85.96;100240.63;10142232;29;20491;-79
2023/02/22 07:29:22;;;;;;;57.53;23.42;;;;;;;7.22;85.16;100240.31;10159851;29;20080;-79
2023/02/22 07:34:25;;;;;;;67.70;26.17;;;;;;;7.16;84.68;100238.06;10144079;29;20056;-79
2023/02/22 07:39:29;;;;;;;70.90;26.30;;;;;;;7.33;84.32;100240.44;10125919;29;20097;-79
2023/02/22 07:44:32;;;;;;;70.82;27.50;;;;;;;7.68;83.63;100242.44;10136027;29;20060;-79
2023/02/22 07:49:34;;;;;;;70.07;26.50;;;;;;;7.80;81.78;100244.22;10128334;29;20067;-78
2023/02/22 07:54:38;;;;;;;65.45;26.67;;;;;;;7.76;81.81;100245.38;10144347;29;20071;-78
2023/02/22 07:59:41;;;;;;;63.42;25.63;;;;;;;7.69;81.78;100236.13;10136232;29;20156;-80
2023/02/22 08:04:44;;;;;;;57.28;24.80;;;;;;;7.98;81.13;100234.03;10137128;29;20060;-79
2023/02/22 08:09:48;;;;;;;66.47;27.95;;;;;;;8.28;80.11;100238.09;10140524;29;20150;-79
2023/02/22 08:14:51;;;;;;;55.10;24.98;;;;;;;8.54;78.93;100231.69;10164076;29;20076;-79
2023/02/22 08:19:54;;;;;;;55.92;24.25;;;;;;;8.58;78.31;100232.31;10140054;29;20072;-78
2023/02/22 08:24:58;;;;;;;49.13;23.17;;;;;;;8.86;77.75;100232.88;10144411;29;20155;-79
2023/02/22 08:30:01;;;;;;;53.53;24.83;;;;;;;8.80;76.91;100231.53;10137353;29;20049;-79
2023/02/22 08:35:04;;;;;;;50.65;22.50;;;;;;;9.09;76.55;100223.09;10127513;29;20056;-79
2023/02/22 08:40:09;;;;;;;51.17;24.33;;;;;;;9.42;75.58;100224.97;10123534;29;20143;-78
2023/02/22 08:45:15;;;;;;;43.13;22.02;;;;;;;9.97;73.68;100219.75;10137819;29;20139;-80
2023/02/22 08:50:20;;;;;;;41.95;21.00;;;;;;;10.31;71.83;100210.63;10145215;29;20096;-77
2023/02/22 08:55:27;;;;;;;42.15;22.88;;;;;;;10.57;70.50;100207.59;10117579;29;20531;-80
2023/02/22 09:00:31;;;;;;;39.72;20.38;;;;;;;10.72;70.64;100202.75;10139766;29;20079;-77
2023/02/22 09:05:35;;;;;;;38.67;20.77;;;;;;;11.09;69.21;100195.09;10109190;29;20060;-78
2023/02/22 09:16:10;;;;;;;39.42;20.98;;;;;;;11.23;68.35;100193.94;10633167;23;20475;-82
2023/02/22 09:21:13;;;;;;;42.58;23.02;;;;;;;11.12;68.52;100181.44;10177985;29;20040;-81
2023/02/22 09:26:16;;;;;;;40.50;21.92;;;;;;;11.49;67.17;100183.59;10204121;23;20051;-77
2023/02/22 09:31:20;;;;;;;33.75;21.00;;;;;;;11.51;67.12;100181.63;10183595;29;20474;-78
2023/02/22 09:36:24;;;;;;;40.03;22.63;;;;;;;12.09;66.22;100168.31;10224980;29;20048;-77
2023/02/22 09:41:35;;;;;;;38.80;22.10;;;;;;;12.59;63.60;100172.78;10233060;29;20050;-77
2023/02/22 09:46:44;;;;;;;37.70;21.75;;;;;;;12.36;64.92;100162.28;10229661;29;20055;-80
2023/02/22 09:51:52;;;;;;;34.58;21.52;;;;;;;12.62;64.38;100161.72;10224445;29;20032;-78
2023/02/22 09:56:58;;;;;;;36.33;20.70;;;;;;;12.41;64.57;100155.63;10192506;29;20044;-77
2023/02/22 10:02:13;;;;;;;36.78;21.70;;;;;;;12.51;64.07;100160.03;10178323;29;20162;-78
2023/02/22 10:07:20;;;;;;;35.53;20.92;;;;;;;12.80;63.55;100162.69;10172762;29;20044;-77
2023/02/22 10:12:34;;;;;;;32.25;19.08;;;;;;;13.12;62.60;100147.16;10180780;29;20052;-78
2023/02/22 10:17:49;;;;;;;29.70;18.95;;;;;;;13.55;61.32;100137.63;10175185;28;20055;-78
2023/02/22 10:23:10;;;;;;;31.83;19.35;;;;;;;13.47;60.71;100133.00;10147875;29;20056;-79
2023/02/22 10:28:19;;;;;;;30.77;18.77;;;;;;;13.28;61.03;100131.22;10140628;29;20071;-77
2023/02/22 10:33:26;;;;;;;29.42;18.83;;;;;;;13.43;60.82;100134.28;10131542;29;20083;-78
2023/02/22 10:38:31;;;;;;;34.25;19.70;;;;;;;13.78;60.73;100124.59;10134824;29;20060;-80
2023/02/22 10:43:39;;;;;;;29.08;17.90;;;;;;;13.84;60.38;100118.59;10130527;29;20051;-77
2023/02/22 10:48:49;;;;;;;30.90;17.13;;;;;;;13.87;60.15;100116.41;10148728;29;20054;-79
2023/02/22 10:54:19;;;;;;;26.65;17.05;;;;;;;14.67;59.09;100118.34;10125274;29;20060;-80
2023/02/22 10:59:31;;;;;;;26.42;17.60;;;;;;;14.83;57.45;100108.50;10135189;29;20491;-78
2023/02/22 11:04:48;;;;;;;28.88;17.30;;;;;;;15.11;58.13;100100.25;10155466;29;20043;-78
2023/02/22 11:09:54;;;;;;;27.65;18.20;;;;;;;15.37;56.93;100093.97;10162050;29;20052;-78
2023/02/22 11:14:56;;;;;;;26.90;17.30;;;;;;;15.51;56.73;100103.31;10153472;29;20048;-78
2023/02/22 11:20:01;;;;;;;26.98;17.48;;;;;;;15.47;56.31;100092.84;10138217;29;21040;-78
2023/02/22 11:25:06;;;;;;;23.35;15.52;;;;;;;15.90;55.34;100090.06;10148813;29;20131;-79
2023/02/22 11:30:22;;;;;;;25.00;16.83;;;;;;;16.44;53.96;100090.50;10166098;29;20127;-79
2023/02/22 11:35:38;;;;;;;24.08;15.57;;;;;;;16.21;53.79;100084.00;10159579;29;20055;-79
2023/02/22 11:40:41;;;;;;;24.00;15.07;;;;;;;16.45;53.39;100073.19;10156498;29;20087;-78
2023/02/22 11:46:01;;;;;;;22.65;15.02;;;;;;;16.52;53.07;100066.09;10154581;29;20092;-79
2023/02/22 11:51:26;;;;;;;25.05;16.15;;;;;;;16.33;52.88;100059.16;10135990;29;20062;-79
2023/02/22 11:56:34;;;;;;;21.73;13.95;;;;;;;17.18;51.96;100050.53;10132512;29;20048;-79
2023/02/22 12:01:46;;;;;;;19.60;13.98;;;;;;;17.44;50.22;100046.69;10129777;29;20063;-75
2023/02/22 12:07:02;;;;;;;18.60;12.75;;;;;;;17.06;50.39;100045.63;10132928;29;20048;-80
2023/02/22 12:12:16;;;;;;;18.95;12.90;;;;;;;17.26;50.59;100046.94;10125022;29;20048;-78
2023/02/22 12:17:33;;;;;;;17.85;12.27;;;;;;;16.83;50.13;100031.97;10133086;29;20158;-79
2023/02/22 12:22:44;;;;;;;15.45;10.90;;;;;;;17.10;49.00;100030.69;10129979;29;20544;-79
2023/02/22 12:27:52;;;;;;;13.68;10.68;;;;;;;17.35;48.65;100018.72;10136257;29;20059;-80
2023/02/22 12:32:58;;;;;;;15.10;11.35;;;;;;;17.38;47.72;100020.25;10135404;29;20052;-79
2023/02/22 12:38:11;;;;;;;18.48;11.43;;;;;;;17.22;49.37;100010.31;10132129;29;20055;-79
2023/02/22 12:43:21;;;;;;;13.23;9.85;;;;;;;16.85;50.06;100016.38;10138374;29;20100;-79
2023/02/22 12:48:33;;;;;;;16.25;11.63;;;;;;;17.43;49.31;100005.13;10130633;29;20048;-78
2023/02/22 12:53:41;;;;;;;13.17;10.13;;;;;;;17.17;48.84;99999.16;10151822;29;20180;-79
2023/02/22 12:58:52;;;;;;;18.77;9.68;;;;;;;17.41;48.74;99993.56;10127033;29;20067;-78
2023/02/22 13:03:55;;;;;;;15.30;9.80;;;;;;;17.52;48.82;99994.22;10134974;29;21201;-77
2023/02/22 13:09:14;;;;;;;13.63;9.90;;;;;;;17.82;47.67;99987.03;10137744;29;20059;-79
2023/02/22 13:14:33;;;;;;;12.55;9.85;;;;;;;18.30;45.94;99993.13;10129378;29;20056;-78
2023/02/22 13:19:42;;;;;;;15.00;9.00;;;;;;;17.83;47.18;99983.31;10139078;29;20211;-80
2023/02/22 13:25:02;;;;;;;12.48;10.00;;;;;;;17.09;49.38;99974.75;10145470;29;20064;-80
2023/02/22 13:30:13;;;;;;;13.07;9.48;;;;;;;17.36;48.56;99976.13;10136262;29;20056;-79
2023/02/22 13:35:33;;;;;;;11.00;8.32;;;;;;;17.37;48.26;99973.25;10132529;29;20074;-79
2023/02/22 13:40:54;;;;;;;10.57;8.32;;;;;;;16.78;49.71;99976.41;10135693;29;20058;-80
2023/02/22 13:46:13;;;;;;;11.05;8.48;;;;;;;16.38;50.25;99971.06;10138439;29;20067;-79
2023/02/22 13:51:34;;;;;;;10.57;8.10;;;;;;;16.21;51.48;99965.66;10131905;29;20138;-80
2023/02/22 13:56:42;;;;;;;10.15;8.30;;;;;;;16.02;51.47;99969.56;10139848;29;20066;-79
2023/02/22 14:01:47;;;;;;;9.93;7.10;;;;;;;16.19;51.40;99964.97;10131892;29;20048;-79
2023/02/22 14:06:50;;;;;;;10.82;7.65;;;;;;;16.44;50.74;99964.97;10135776;29;20720;-79
2023/02/22 14:11:55;;;;;;;11.55;7.97;;;;;;;16.57;49.74;99966.09;10131970;29;20140;-80
2023/02/22 14:17:24;;;;;;;12.23;7.70;;;;;;;16.59;50.45;99961.38;10131335;29;20076;-79
2023/02/22 14:22:28;;;;;;;9.55;7.32;;;;;;;16.39;50.36;99951.91;10134089;29;20044;-79
2023/02/22 14:27:41;;;;;;;13.35;8.30;;;;;;;16.07;50.88;99953.63;10129768;29;20496;-78
2023/02/22 14:32:47;;;;;;;7.57;6.78;;;;;;;15.72;51.89;99959.41;10136128;29;20054;-77
2023/02/22 14:37:55;;;;;;;8.50;7.55;;;;;;;15.22;53.20;99955.69;10132673;29;20669;-79
2023/02/22 14:43:04;;;;;;;13.15;8.48;;;;;;;15.18;54.26;99957.06;10169357;29;20043;-78
2023/02/22 14:48:19;;;;;;;9.70;7.32;;;;;;;14.93;54.50;99954.25;10145988;29;20048;-79
2023/02/22 14:53:27;;;;;;;12.50;7.85;;;;;;;14.44;55.65;99947.78;10151408;29;20134;-78
2023/02/22 14:58:37;;;;;;;9.02;7.35;;;;;;;14.58;56.42;99941.75;10119446;29;20059;-79
2023/02/22 15:03:40;;;;;;;11.63;7.90;;;;;;;14.45;57.47;99931.38;10137298;29;20059;-77
2023/02/22 15:08:47;;;;;;;11.70;8.05;;;;;;;14.55;57.25;99936.69;10118255;29;20059;-79
2023/02/22 15:13:56;;;;;;;10.07;7.97;;;;;;;14.21;57.99;99942.88;10137578;29;20056;-78
2023/02/22 15:19:05;;;;;;;10.32;8.65;;;;;;;14.11;58.31;99937.56;10130159;29;20788;-77
2023/02/22 15:24:11;;;;;;;11.65;8.88;;;;;;;14.12;58.71;99930.31;10126898;29;20140;-80
2023/02/22 15:29:18;;;;;;;13.63;8.45;;;;;;;13.99;59.20;99930.75;10133427;29;20060;-79
2023/02/22 15:34:26;;;;;;;13.25;8.85;;;;;;;13.86;59.68;99925.75;10131159;29;20200;-80
2023/02/22 15:39:33;;;;;;;9.85;7.93;;;;;;;13.76;59.72;99924.97;10128357;29;20586;-80
2023/02/22 15:44:40;;;;;;;13.85;8.98;;;;;;;13.69;59.95;99923.94;10138239;29;20045;-79
2023/02/22 15:49:43;;;;;;;11.70;8.68;;;;;;;13.57;60.50;99923.31;10133154;29;20127;-78
2023/02/22 15:54:49;;;;;;;14.38;9.27;;;;;;;13.48;61.01;99935.03;10134674;29;20616;-79
2023/02/22 15:59:57;;;;;;;13.25;8.90;;;;;;;13.33;61.32;99932.00;10141278;29;20072;-79
2023/02/22 16:05:05;;;;;;;10.35;8.10;;;;;;;13.16;62.23;99935.50;10145133;29;20044;-77
2023/02/22 16:10:24;;;;;;;11.60;8.65;;;;;;;13.08;62.28;99940.81;10146489;29;20102;-78
2023/02/22 16:15:32;;;;;;;11.35;8.55;;;;;;;12.94;62.70;99934.06;10131464;29;20064;-79
2023/02/22 16:20:35;;;;;;;9.95;7.35;;;;;;;12.77;63.04;99933.03;10139138;29;20057;-80
2023/02/22 16:25:38;;;;;;;10.35;8.13;;;;;;;12.60;63.85;99934.69;10127029;29;21391;-76
2023/02/22 16:30:42;;;;;;;13.52;8.60;;;;;;;12.39;64.28;99935.75;10129615;29;20063;-79
2023/02/22 16:35:50;;;;;;;9.60;8.38;;;;;;;12.22;64.78;99939.16;10126234;29;20078;-79
2023/02/22 16:40:56;;;;;;;15.80;9.27;;;;;;;12.05;65.68;99942.63;10134593;29;20048;-78
2023/02/22 16:46:01;;;;;;;14.95;10.50;;;;;;;11.90;66.10;99945.75;10129628;29;20044;-79
2023/02/22 16:51:13;;;;;;;12.25;9.52;;;;;;;11.76;66.57;99950.72;10132614;29;20055;-79
2023/02/22 16:56:19;;;;;;;15.63;9.70;;;;;;;11.60;67.08;99951.28;10142106;29;20055;-78
2023/02/22 17:01:24;;;;;;;12.32;9.20;;;;;;;11.49;67.40;99949.59;10167211;29;20066;-78
2023/02/22 17:06:28;;;;;;;11.63;9.13;;;;;;;11.39;67.92;99951.44;10172624;29;20062;-78
2023/02/22 17:11:30;;;;;;;14.25;9.73;;;;;;;11.34;67.92;99970.66;10161316;29;20140;-79
2023/02/22 17:16:35;;;;;;;13.48;9.77;;;;;;;11.30;68.20;99966.56;10165686;29;20075;-79
2023/02/22 17:21:39;;;;;;;14.48;9.85;;;;;;;11.26;68.33;99970.50;10157116;29;20060;-79
2023/02/22 17:26:41;;;;;;;14.27;10.18;;;;;;;11.18;68.30;99962.28;10161425;29;20521;-78
2023/02/22 17:31:47;;;;;;;14.85;10.93;;;;;;;11.07;68.59;99957.84;10166136;29;20114;-81
2023/02/22 17:36:50;;;;;;;15.30;10.15;;;;;;;11.03;68.88;99972.56;10180727;29;20052;-78
2023/02/22 17:41:56;;;;;;;12.75;9.93;;;;;;;11.02;69.22;99973.53;10189458;29;20080;-78
2023/02/22 17:47:00;;;;;;;14.65;11.20;;;;;;;11.03;69.15;99978.78;10156566;29;20048;-80
2023/02/22 17:52:05;;;;;;;18.08;11.15;;;;;;;11.02;69.21;99970.84;10127676;29;20048;-80
2023/02/22 17:57:07;;;;;;;16.52;10.68;;;;;;;11.02;68.48;99978.91;10127376;29;20064;-79
2023/02/22 18:02:12;;;;;;;16.40;10.15;;;;;;;10.98;67.93;99974.81;10122976;29;20056;-80
2023/02/22 18:07:18;;;;;;;13.98;9.93;;;;;;;10.94;67.76;99976.94;10129133;29;20059;-80
2023/02/22 18:12:21;;;;;;;13.32;9.70;;;;;;;10.79;68.11;99973.75;10126745;29;20044;-78
2023/02/22 18:17:25;;;;;;;12.48;9.98;;;;;;;10.71;68.32;99970.88;10125868;29;20144;-78
2023/02/22 18:22:28;;;;;;;15.68;10.20;;;;;;;10.72;68.57;99979.78;10103083;29;20052;-77
2023/02/22 18:27:31;;;;;;;15.82;11.45;;;;;;;10.70;68.45;99977.25;10103753;29;20056;-77
2023/02/22 18:32:35;;;;;;;15.38;12.32;;;;;;;10.73;68.06;99981.50;10111415;29;20066;-78
2023/02/22 18:37:38;;;;;;;18.77;11.65;;;;;;;10.74;67.48;99984.03;10123751;29;20141;-78
2023/02/22 18:42:41;;;;;;;15.93;10.35;;;;;;;10.76;66.64;99976.72;10120908;29;20049;-78
2023/02/22 18:47:45;;;;;;;12.93;9.60;;;;;;;10.75;65.61;99984.88;10123415;29;21311;-76
2023/02/22 18:52:48;;;;;;;11.93;8.48;;;;;;;10.68;65.09;99984.59;10123968;29;20078;-77
2023/02/22 18:57:51;;;;;;;12.75;8.65;;;;;;;10.64;64.61;99977.81;10124508;29;20701;-78
2023/02/22 19:02:56;;;;;;;10.70;7.40;;;;;;;10.65;64.28;99986.72;10157013;29;20058;-78
2023/02/22 19:07:59;;;;;;;13.00;9.30;;;;;;;10.66;63.71;99983.03;10166276;29;20047;-77
2023/02/22 19:13:02;;;;;;;16.23;8.45;;;;;;;10.74;63.31;99983.19;10165075;29;20051;-78
2023/02/22 19:18:06;;;;;;;11.38;8.32;;;;;;;10.71;62.84;99984.31;10160824;29;20056;-77
2023/02/22 19:23:10;;;;;;;14.05;8.68;;;;;;;10.71;62.92;99987.00;10161489;29;20056;-78
2023/02/22 19:28:14;;;;;;;11.20;8.63;;;;;;;10.61;62.91;99984.28;10165335;29;20047;-79
2023/02/22 19:33:18;;;;;;;10.90;7.60;;;;;;;10.56;63.00;99972.25;10164038;29;20075;-78
2023/02/22 19:38:21;;;;;;;17.38;12.73;;;;;;;10.43;63.25;99982.34;10166119;29;20054;-77
2023/02/22 19:43:24;;;;;;;12.25;9.65;;;;;;;10.38;63.49;99980.06;10186941;29;20091;-78
2023/02/22 19:48:28;;;;;;;12.75;9.27;;;;;;;10.33;63.53;99969.72;10172902;29;20061;-79
2023/02/22 19:53:31;;;;;;;10.32;8.05;;;;;;;10.20;63.88;99974.44;10172421;29;20071;-79
2023/02/22 19:58:35;;;;;;;13.35;9.32;;;;;;;10.13;64.12;99978.66;10193687;28;20039;-77
2023/02/22 20:03:40;;;;;;;10.82;8.00;;;;;;;10.07;64.33;99988.06;10206244;28;20067;-77
2023/02/22 20:08:43;;;;;;;13.55;7.97;;;;;;;10.00;64.48;99984.19;10202308;29;20047;-77
2023/02/22 20:13:46;;;;;;;12.20;8.55;;;;;;;9.95;64.86;99986.41;10165609;29;20201;-77
2023/02/22 20:18:51;;;;;;;14.98;8.90;;;;;;;9.88;65.04;99988.78;10162801;29;20128;-78
2023/02/22 20:23:56;;;;;;;12.52;9.35;;;;;;;9.82;65.42;99994.63;10170706;29;20060;-78
2023/02/22 20:28:59;;;;;;;14.10;8.80;;;;;;;9.77;65.49;99986.13;10167188;29;20115;-78
2023/02/22 20:34:04;;;;;;;17.17;9.50;;;;;;;9.72;65.42;99986.50;10130003;29;20151;-78
2023/02/22 20:39:12;;;;;;;16.08;9.60;;;;;;;9.61;65.63;99991.91;10121562;29;20063;-78
2023/02/22 20:44:16;;;;;;;13.32;8.70;;;;;;;9.66;65.44;99996.91;10126170;29;20056;-78
2023/02/22 20:49:20;;;;;;;14.52;9.43;;;;;;;9.71;65.20;99994.69;10158102;29;20525;-78
2023/02/22 20:54:23;;;;;;;13.15;10.10;;;;;;;9.61;65.43;99993.75;10168967;29;20190;-79
2023/02/22 20:59:27;;;;;;;14.48;9.25;;;;;;;9.51;65.64;99994.50;10169880;29;20103;-79
2023/02/22 21:04:32;;;;;;;20.45;9.90;;;;;;;9.69;65.24;99996.63;10166151;29;20132;-79
2023/02/22 21:09:37;;;;;;;14.70;9.43;;;;;;;9.59;65.44;100004.59;10168590;29;20499;-78
2023/02/22 21:14:42;;;;;;;15.27;10.35;;;;;;;9.66;65.20;99997.75;10167332;29;20054;-80
2023/02/22 21:19:46;;;;;;;17.80;10.00;;;;;;;9.67;65.24;100006.63;10167009;29;21119;-79
2023/02/22 21:24:49;;;;;;;14.27;10.30;;;;;;;9.70;65.13;100007.22;10155889;29;20731;-78
2023/02/22 21:29:56;;;;;;;16.25;10.25;;;;;;;9.64;65.31;100012.25;10127910;29;20142;-79
2023/02/22 21:35:00;;;;;;;16.15;11.25;;;;;;;9.68;65.22;100002.97;10130299;29;20127;-79
2023/02/22 21:40:09;;;;;;;14.50;10.82;;;;;;;9.62;65.34;100017.72;10126819;29;20052;-78
2023/02/22 21:45:12;;;;;;;16.02;11.23;;;;;;;9.57;65.35;100016.41;10126441;29;20062;-77
2023/02/22 21:50:19;;;;;;;22.35;13.38;;;;;;;9.46;65.71;100020.84;10131905;29;20092;-79
2023/02/22 21:55:22;;;;;;;30.98;16.90;;;;;;;9.42;66.05;100011.34;10121271;29;20086;-78
2023/02/22 22:00:29;;;;;;;23.48;15.50;;;;;;;9.41;66.05;100014.16;10139310;29;20054;-78
2023/02/22 22:05:34;;;;;;;24.83;14.35;;;;;;;9.44;66.28;100014.75;10171190;29;20115;-78
2023/02/22 22:10:37;;;;;;;30.77;17.90;;;;;;;9.42;66.23;100019.38;10164444;29;20052;-79
2023/02/22 22:15:40;;;;;;;29.50;16.30;;;;;;;9.36;66.59;100019.06;10140947;29;20916;-79
2023/02/22 22:20:48;;;;;;;18.95;13.18;;;;;;;9.17;67.30;100014.34;10131451;29;20194;-78
2023/02/22 22:26:01;;;;;;;19.92;12.90;;;;;;;8.90;68.16;100023.59;10127584;29;20063;-78
2023/02/22 22:31:04;;;;;;;21.73;15.05;;;;;;;8.75;69.05;100017.66;10171758;29;20194;-78
2023/02/22 22:36:10;;;;;;;23.42;14.88;;;;;;;8.75;69.15;100025.69;10166139;29;20064;-79
2023/02/22 22:41:14;;;;;;;23.10;14.73;;;;;;;8.70;69.42;100025.19;10178814;29;20163;-78
2023/02/22 22:46:18;;;;;;;25.50;15.00;;;;;;;8.73;69.47;100038.34;10162947;29;20053;-79
2023/02/22 22:51:22;;;;;;;26.17;17.67;;;;;;;8.77;69.56;100031.75;10176139;29;20509;-78
2023/02/22 22:56:27;;;;;;;26.88;16.08;;;;;;;8.55;70.11;100037.94;10200243;29;20426;-78
2023/02/22 23:01:33;;;;;;;29.67;16.15;;;;;;;8.21;71.79;100038.84;10192630;29;20460;-78
2023/02/22 23:06:40;;;;;;;25.80;16.92;;;;;;;8.21;71.95;100052.22;10159682;29;20124;-79
2023/02/22 23:11:44;;;;;;;29.90;17.13;;;;;;;8.08;72.18;100042.44;10159188;29;20099;-79
2023/02/22 23:16:48;;;;;;;28.05;18.60;;;;;;;8.18;72.33;100045.28;10159225;29;20049;-77